05TN weather

CLOSED Thurmond Glenn Field
Covington, Tennessee, United States

Public forecast

Using degrees Fahrenheit for public forecast. Weather courtesy of forecast.io.

METAR (pilot weather report)

Closest report is Millington-Memphis Airport, 19.6 nm (36.4 km) SW. Retrieved 2019/05/22 10:30 UTC (0 seconds ago):

KNQA 221030Z 02005KT 10SM OVC024 20/17 A2985

TAF (pilot weather forecast)

Closest forecast is McKellar-Sipes Regional Airport, 31.2 nm (57.8 km) E. Retrieved 2019/05/22 06:22 UTC (4 hours ago):

TAF KMKL 220520Z 2206/2306 19009G18KT P6SM BKN250 FM221300 19012KT P6SM VCSH BKN060 BKN250 FM221800 20012G18KT P6SM OVC050 FM222300 18007KT P6SM FEW250